Time;durP1;ratioP1;P1;durP2;ratioP2;P2;SDS_P1;SDS_P2;PMS_P1;PMS_P2;Temp;Humidity;BMP_temperature;BMP_pressure;BME280_temperature;BME280_humidity;BME280_pressure;Samples;Min_cycle;Max_cycle;Signal;HPM_P1;HPM_P2
2022/01/17 00:01:24;;;;;;;82.90;42.77;;;;;;;1.01;81.24;100241.00;5075188;28;20483;-69
2022/01/17 00:03:51;;;;;;;84.37;46.03;;;;;;;1.04;79.87;100236.34;5074714;28;20826;-68
2022/01/17 00:06:18;;;;;;;84.83;44.33;;;;;;;1.06;80.37;100234.44;5074513;28;21055;-69
2022/01/17 00:08:46;;;;;;;77.80;42.13;;;;;;;1.08;79.91;100232.56;5074905;28;20878;-69
2022/01/17 00:11:14;;;;;;;87.47;42.60;;;;;;;1.08;79.39;100237.78;5074770;28;20499;-68
2022/01/17 00:13:41;;;;;;;80.60;43.40;;;;;;;1.09;78.88;100228.97;5075056;28;20469;-68
2022/01/17 00:16:11;;;;;;;86.93;44.13;;;;;;;1.08;79.05;100221.25;5074498;28;20442;-69
2022/01/17 00:19:17;;;;;;;80.87;42.13;;;;;;;0.98;79.34;100231.56;5075525;28;20446;-69
2022/01/17 00:21:44;;;;;;;78.97;43.13;;;;;;;0.79;80.24;100231.34;5073460;28;20438;-69
2022/01/17 00:24:13;;;;;;;80.43;40.97;;;;;;;0.71;80.62;100238.09;5074449;28;20442;-69
2022/01/17 00:26:39;;;;;;;90.83;43.87;;;;;;;0.62;81.51;100234.41;5074308;28;20996;-70
2022/01/17 00:29:06;;;;;;;77.67;42.27;;;;;;;0.68;82.14;100239.16;5074183;28;20937;-70
2022/01/17 00:31:33;;;;;;;83.97;42.87;;;;;;;0.74;81.10;100243.94;5074368;28;20452;-70
2022/01/17 00:33:59;;;;;;;82.97;42.17;;;;;;;0.79;80.68;100241.78;5074603;28;20479;-70
2022/01/17 00:36:26;;;;;;;86.77;46.23;;;;;;;0.78;80.69;100237.53;5075153;28;20515;-69
2022/01/17 00:38:53;;;;;;;80.57;43.27;;;;;;;0.80;80.20;100232.16;5074322;28;20441;-69
2022/01/17 00:41:21;;;;;;;86.83;44.20;;;;;;;0.81;80.44;100233.84;5074766;28;20438;-69
2022/01/17 00:43:48;;;;;;;106.00;51.53;;;;;;;0.82;80.32;100235.50;5074180;28;20435;-69
2022/01/17 00:46:15;;;;;;;130.57;59.20;;;;;;;0.82;80.32;100231.13;5074270;28;20490;-69
2022/01/17 00:48:41;;;;;;;137.43;57.83;;;;;;;0.81;79.70;100229.41;5074123;28;20497;-69
2022/01/17 00:51:08;;;;;;;114.83;52.07;;;;;;;0.82;79.96;100228.50;5074392;28;20442;-68
2022/01/17 00:53:37;;;;;;;115.37;50.07;;;;;;;0.80;79.84;100227.75;5073942;28;20867;-68
2022/01/17 00:56:04;;;;;;;95.73;47.27;;;;;;;0.82;79.81;100219.81;5072724;28;20458;-68
2022/01/17 00:58:32;;;;;;;109.43;47.53;;;;;;;0.84;79.92;100223.97;5073879;28;21002;-68
2022/01/17 01:00:59;;;;;;;97.57;46.07;;;;;;;0.83;80.49;100217.09;5073574;28;20956;-68
2022/01/17 01:03:26;;;;;;;94.37;46.33;;;;;;;0.85;80.33;100209.94;5073967;28;20440;-68
2022/01/17 01:05:52;;;;;;;87.33;43.77;;;;;;;0.86;79.85;100208.97;5073726;28;20473;-68
2022/01/17 01:08:19;;;;;;;87.37;44.73;;;;;;;0.92;79.79;100205.91;5074052;28;20439;-68
2022/01/17 01:10:46;;;;;;;79.77;41.60;;;;;;;0.87;80.24;100200.22;5073916;28;20438;-68
2022/01/17 01:13:13;;;;;;;80.97;42.93;;;;;;;0.92;79.96;100198.06;5073726;28;20949;-68
2022/01/17 01:16:08;;;;;;;80.23;41.77;;;;;;;0.95;79.23;100197.00;5073385;28;20947;-68
2022/01/17 01:18:49;;;;;;;81.00;42.37;;;;;;;0.94;79.73;100182.25;5073880;28;20432;-69
2022/01/17 01:21:43;;;;;;;77.67;41.97;;;;;;;0.83;78.93;100177.84;5073825;28;20426;-69
2022/01/17 01:29:56;;;;;;;71.97;40.10;;;;;;;0.76;78.48;100168.81;5031961;28;20862;-69
2022/01/17 01:32:30;;;;;;;75.70;39.23;;;;;;;0.69;78.96;100166.81;5055767;28;20532;-70
2022/01/17 01:34:59;;;;;;;70.57;39.77;;;;;;;0.68;79.98;100152.03;5072812;28;20518;-70
2022/01/17 01:37:26;;;;;;;68.97;37.83;;;;;;;0.67;79.55;100153.84;5073244;28;20442;-69
2022/01/17 01:39:54;;;;;;;70.40;39.27;;;;;;;0.59;79.27;100145.75;5073378;28;20446;-70
2022/01/17 01:42:22;;;;;;;72.43;38.47;;;;;;;0.57;79.88;100138.97;5073055;28;21013;-70
2022/01/17 01:44:51;;;;;;;72.80;39.43;;;;;;;0.55;80.64;100133.03;5073001;28;20866;-69
2022/01/17 01:47:21;;;;;;;66.67;37.73;;;;;;;0.59;80.24;100140.53;5072677;28;20477;-70
2022/01/17 01:49:49;;;;;;;65.17;36.17;;;;;;;0.60;80.04;100136.16;5072895;28;20434;-69
2022/01/17 01:52:16;;;;;;;70.10;37.83;;;;;;;0.64;79.34;100138.38;5072833;28;21012;-69
2022/01/17 01:54:42;;;;;;;64.47;35.10;;;;;;;0.68;79.26;100131.97;5073133;28;20864;-69
2022/01/17 01:57:10;;;;;;;57.00;31.23;;;;;;;0.63;79.29;100134.13;5072599;28;20443;-69
2022/01/17 01:59:37;;;;;;;51.20;30.87;;;;;;;0.64;78.73;100117.47;5072274;28;20434;-70
2022/01/17 02:02:04;;;;;;;48.93;29.60;;;;;;;0.61;79.35;100122.94;5072300;28;20473;-70
2022/01/17 02:04:31;;;;;;;54.87;31.27;;;;;;;0.63;79.23;100114.97;5072710;28;20430;-70
2022/01/17 02:06:59;;;;;;;50.77;30.03;;;;;;;0.67;78.63;100116.41;5072348;28;20484;-70
2022/01/17 02:09:26;;;;;;;51.10;31.67;;;;;;;0.65;77.92;100124.34;5072368;28;20489;-70
2022/01/17 02:11:53;;;;;;;52.73;30.80;;;;;;;0.63;79.08;100118.44;5072438;28;20892;-70
2022/01/17 02:14:20;;;;;;;55.80;32.23;;;;;;;0.64;78.35;100107.03;5073011;28;20434;-69
2022/01/17 02:16:49;;;;;;;51.73;31.27;;;;;;;0.59;79.22;100113.56;5072229;28;20932;-70
2022/01/17 02:19:20;;;;;;;54.63;31.50;;;;;;;0.60;79.47;100107.41;5072801;28;20442;-70
2022/01/17 02:21:50;;;;;;;46.37;30.30;;;;;;;0.65;79.43;100098.22;5072791;28;20435;-70
2022/01/17 02:24:20;;;;;;;59.40;30.37;;;;;;;0.60;79.42;100100.38;5072453;28;20426;-70
2022/01/17 02:26:48;;;;;;;52.83;29.87;;;;;;;0.63;78.88;100100.13;5072046;28;20565;-69
2022/01/17 02:29:15;;;;;;;48.97;28.60;;;;;;;0.66;79.20;100105.13;5072343;28;20438;-69
2022/01/17 02:31:42;;;;;;;52.73;30.77;;;;;;;0.65;78.64;100093.00;5072606;28;20441;-70
2022/01/17 02:34:09;;;;;;;51.07;30.23;;;;;;;0.70;78.47;100095.25;5072773;28;20478;-70
2022/01/17 02:36:35;;;;;;;47.00;29.10;;;;;;;0.65;78.68;100102.63;5072062;28;20828;-69
2022/01/17 02:39:04;;;;;;;48.23;28.97;;;;;;;0.65;78.76;100100.03;5072060;28;20493;-69
2022/01/17 02:41:33;;;;;;;49.73;28.57;;;;;;;0.66;78.35;100105.13;5071784;28;20942;-69
2022/01/17 02:44:01;;;;;;;49.33;28.70;;;;;;;0.68;77.25;100103.22;5072652;28;20435;-69
2022/01/17 02:46:29;;;;;;;47.93;27.60;;;;;;;0.69;77.99;100110.09;5071308;28;20478;-70
2022/01/17 02:48:57;;;;;;;51.93;28.53;;;;;;;0.68;77.98;100103.22;5071895;28;20818;-69
2022/01/17 02:51:24;;;;;;;46.07;28.23;;;;;;;0.58;77.49;100097.06;5071758;28;20519;-69
2022/01/17 02:53:51;;;;;;;46.87;28.10;;;;;;;0.53;78.28;100101.78;5071812;28;20933;-70
2022/01/17 02:56:20;;;;;;;46.43;27.53;;;;;;;0.49;77.98;100102.97;5072050;28;20446;-70
2022/01/17 02:58:47;;;;;;;51.93;27.93;;;;;;;0.30;78.39;100102.72;5071878;28;20496;-71
2022/01/17 03:01:16;;;;;;;54.80;29.57;;;;;;;0.29;79.68;100101.06;5072131;28;20438;-71
2022/01/17 03:03:44;;;;;;;49.87;28.63;;;;;;;0.23;79.79;100106.75;5071767;28;20517;-71
2022/01/17 03:06:12;;;;;;;52.00;29.83;;;;;;;0.23;80.27;100096.28;5072216;28;20474;-71
2022/01/17 03:08:41;;;;;;;57.67;31.77;;;;;;;0.13;79.71;100093.53;5071624;28;20488;-70
2022/01/17 03:11:10;;;;;;;61.73;32.00;;;;;;;-0.05;80.49;100092.31;5071740;28;20438;-69
2022/01/17 03:13:39;;;;;;;53.97;31.73;;;;;;;-0.14;80.90;100092.16;5071665;28;20450;-69
2022/01/17 03:16:09;;;;;;;55.83;31.13;;;;;;;-0.22;80.86;100084.94;5071863;28;20440;-69
2022/01/17 03:18:40;;;;;;;61.37;30.57;;;;;;;-0.20;81.94;100082.19;5071681;28;20930;-69
2022/01/17 03:21:08;;;;;;;62.20;31.63;;;;;;;-0.21;81.14;100080.50;5072540;28;20799;-69
2022/01/17 03:23:35;;;;;;;58.90;30.37;;;;;;;-0.33;81.90;100071.81;5071653;28;20446;-69
2022/01/17 03:26:03;;;;;;;53.23;29.83;;;;;;;-0.35;83.13;100078.09;5071420;28;20526;-69
2022/01/17 03:28:30;;;;;;;53.47;30.83;;;;;;;-0.56;82.20;100048.38;5071553;28;20437;-69
2022/01/17 03:30:59;;;;;;;54.47;31.03;;;;;;;-0.57;83.04;100062.38;5071517;28;20429;-69
2022/01/17 03:33:27;;;;;;;53.03;30.20;;;;;;;-0.53;83.32;100069.03;5071562;28;20968;-70
2022/01/17 03:35:54;;;;;;;63.10;34.00;;;;;;;-0.45;83.56;100064.91;5071541;28;20499;-69
2022/01/17 03:38:23;;;;;;;51.30;30.93;;;;;;;-0.45;82.01;100061.47;5071322;28;20446;-70
2022/01/17 03:40:51;;;;;;;49.27;29.37;;;;;;;-0.51;81.63;100061.91;5071713;28;20505;-68
2022/01/17 03:43:18;;;;;;;51.37;30.60;;;;;;;-0.66;81.78;100050.84;5071410;28;21044;-69
2022/01/17 03:45:46;;;;;;;52.13;29.27;;;;;;;-0.67;82.45;100053.53;5071171;28;20953;-69
2022/01/17 03:48:15;;;;;;;62.27;31.67;;;;;;;-0.70;82.53;100048.53;5071270;28;20809;-69
2022/01/17 03:50:42;;;;;;;48.37;28.87;;;;;;;-0.66;82.92;100047.38;5071138;28;20937;-69
2022/01/17 03:53:09;;;;;;;53.30;29.57;;;;;;;-0.62;82.48;100048.81;5071566;28;20446;-69
2022/01/17 03:55:36;;;;;;;52.37;29.97;;;;;;;-0.66;82.02;100045.63;5071594;28;20487;-69
2022/01/17 03:58:04;;;;;;;50.63;28.60;;;;;;;-0.71;82.72;100039.91;5074400;28;20795;-69
2022/01/17 04:00:35;;;;;;;60.13;31.63;;;;;;;-0.84;83.15;100041.75;5075334;28;20868;-69
2022/01/17 04:03:02;;;;;;;52.87;31.20;;;;;;;-0.84;83.76;100025.25;5075790;28;20430;-69
2022/01/17 04:05:30;;;;;;;53.63;31.60;;;;;;;-0.86;83.25;100032.38;5074844;28;20945;-69
2022/01/17 04:07:57;;;;;;;48.00;28.60;;;;;;;-0.87;84.34;100031.53;5074812;28;20524;-69
2022/01/17 04:10:23;;;;;;;51.23;30.00;;;;;;;-0.80;83.90;100016.28;5074591;28;20488;-69
2022/01/17 04:12:50;;;;;;;47.33;27.63;;;;;;;-0.71;83.27;100012.97;5074664;28;20434;-69
2022/01/17 04:15:17;;;;;;;50.33;28.67;;;;;;;-0.64;82.54;100022.84;5074599;28;20937;-69
2022/01/17 04:17:44;;;;;;;42.73;28.07;;;;;;;-0.59;82.34;100019.91;5074995;28;20437;-69
2022/01/17 04:20:15;;;;;;;51.63;29.53;;;;;;;-0.52;82.51;100034.16;5074863;28;20433;-69
2022/01/17 04:22:51;;;;;;;45.47;28.37;;;;;;;-0.50;82.15;100032.25;5075055;28;20489;-69
2022/01/17 04:25:18;;;;;;;44.13;27.67;;;;;;;-0.55;82.83;100031.78;5075716;28;20566;-70
2022/01/17 04:27:45;;;;;;;48.43;27.73;;;;;;;-0.62;82.61;100043.59;5074634;28;20481;-70
2022/01/17 04:30:13;;;;;;;52.40;30.23;;;;;;;-0.67;83.74;100045.72;5074113;28;20503;-70
2022/01/17 04:32:41;;;;;;;55.63;30.10;;;;;;;-0.60;83.57;100047.75;5074917;28;20525;-70
2022/01/17 04:35:09;;;;;;;50.00;27.37;;;;;;;-0.59;82.32;100054.66;5074418;28;20433;-70
2022/01/17 04:37:36;;;;;;;46.83;27.00;;;;;;;-0.52;82.92;100060.25;5074380;28;20478;-70
2022/01/17 04:40:06;;;;;;;48.77;29.13;;;;;;;-0.47;82.10;100052.91;5074105;28;20503;-70
2022/01/17 04:42:33;;;;;;;58.17;30.17;;;;;;;-0.44;81.54;100047.47;5074318;28;20449;-70
2022/01/17 04:45:11;;;;;;;53.73;29.97;;;;;;;-0.40;81.56;100048.91;5074384;28;20449;-70
2022/01/17 04:47:38;;;;;;;53.97;29.40;;;;;;;-0.38;81.19;100049.63;5073991;28;20999;-69
2022/01/17 04:50:06;;;;;;;46.80;29.50;;;;;;;-0.38;81.39;100058.28;5073910;28;21057;-70
2022/01/17 04:52:35;;;;;;;53.07;29.50;;;;;;;-0.39;80.24;100051.41;5073929;28;20434;-69
2022/01/17 04:55:02;;;;;;;53.27;29.03;;;;;;;-0.48;81.46;100056.47;5073570;28;20446;-69
2022/01/17 04:57:30;;;;;;;49.30;27.67;;;;;;;-0.71;81.43;100039.06;5074472;28;20434;-69
2022/01/17 04:59:57;;;;;;;46.13;26.57;;;;;;;-0.68;82.72;100049.28;5074076;28;20442;-69
2022/01/17 05:02:24;;;;;;;48.47;27.47;;;;;;;-0.65;83.19;100049.88;5073919;28;20438;-69
2022/01/17 05:04:51;;;;;;;50.73;29.40;;;;;;;-0.61;82.69;100055.72;5073880;28;20446;-70
2022/01/17 05:07:18;;;;;;;45.70;26.57;;;;;;;-0.72;81.82;100058.28;5073624;28;20474;-69
2022/01/17 05:09:46;;;;;;;41.40;24.47;;;;;;;-0.76;82.69;100052.44;5073034;28;20442;-70
2022/01/17 05:12:13;;;;;;;50.80;27.50;;;;;;;-0.71;83.08;100049.50;5074184;28;20444;-69
2022/01/17 05:14:44;;;;;;;50.27;28.00;;;;;;;-0.70;82.35;100056.38;5073404;28;20957;-69
2022/01/17 05:17:24;;;;;;;57.70;31.33;;;;;;;-0.76;82.15;100039.41;5073382;28;20434;-69
2022/01/17 05:19:56;;;;;;;59.53;34.00;;;;;;;-0.71;82.34;100039.06;5073463;28;20438;-70
2022/01/17 05:22:23;;;;;;;65.13;35.93;;;;;;;-0.72;81.99;100033.03;5073542;28;20501;-70
2022/01/17 05:24:50;;;;;;;81.13;34.73;;;;;;;-0.72;82.31;100033.03;5073492;28;20441;-69
2022/01/17 05:27:17;;;;;;;53.57;31.77;;;;;;;-0.85;83.11;100041.84;5072860;28;20470;-69
2022/01/17 05:29:46;;;;;;;66.70;33.57;;;;;;;-0.84;83.83;100043.50;5072925;28;20553;-71
2022/01/17 05:32:13;;;;;;;46.27;26.90;;;;;;;-0.79;83.30;100026.59;5073647;28;20525;-70
2022/01/17 05:34:41;;;;;;;46.07;28.10;;;;;;;-0.76;83.18;100025.53;5074046;28;20602;-70
2022/01/17 05:37:08;;;;;;;47.57;28.97;;;;;;;-0.73;83.10;100020.09;5073244;28;20523;-70
2022/01/17 05:39:35;;;;;;;49.73;29.73;;;;;;;-0.69;83.22;100024.16;5072844;28;20977;-70
2022/01/17 05:42:04;;;;;;;50.37;30.00;;;;;;;-0.72;82.45;100024.38;5072630;28;20942;-69
2022/01/17 05:44:30;;;;;;;48.90;28.87;;;;;;;-0.89;83.51;100017.75;5072805;28;20492;-68
2022/01/17 05:46:59;;;;;;;55.67;30.70;;;;;;;-0.83;83.63;100019.09;5072602;28;20992;-68
2022/01/17 05:49:26;;;;;;;54.87;32.33;;;;;;;-0.99;83.92;100005.50;5072982;28;20461;-68
2022/01/17 05:51:53;;;;;;;51.10;31.13;;;;;;;-1.00;84.29;100001.25;5072705;28;20495;-70
2022/01/17 05:54:20;;;;;;;66.30;39.13;;;;;;;-1.10;83.51;100013.28;5073095;28;20510;-70
2022/01/17 05:56:46;;;;;;;64.40;37.23;;;;;;;-1.16;83.78;100017.16;5072311;28;20446;-70
2022/01/17 05:59:13;;;;;;;69.47;34.70;;;;;;;-1.07;84.82;100019.09;5072670;28;20865;-69
2022/01/17 06:01:42;;;;;;;64.27;35.67;;;;;;;-0.97;84.17;100022.69;5072680;28;20446;-65
2022/01/17 06:04:10;;;;;;;70.23;37.27;;;;;;;-0.87;82.93;100022.88;5072278;28;20503;-66
2022/01/17 06:06:37;;;;;;;73.07;37.70;;;;;;;-0.81;82.98;100018.03;5072021;28;20486;-65
2022/01/17 06:09:04;;;;;;;69.53;36.77;;;;;;;-0.70;82.39;100019.84;5072054;28;20533;-66
2022/01/17 06:11:33;;;;;;;56.67;33.60;;;;;;;-0.59;82.47;100019.91;5072204;28;20503;-65
2022/01/17 06:14:00;;;;;;;61.97;33.13;;;;;;;-0.52;82.19;100014.13;5072298;28;20499;-65
2022/01/17 06:16:27;;;;;;;53.80;33.17;;;;;;;-0.62;83.12;100014.91;5072198;28;20869;-65
2022/01/17 06:18:54;;;;;;;58.17;35.40;;;;;;;-0.55;83.47;100013.53;5072306;28;20494;-65
2022/01/17 06:21:22;;;;;;;61.50;32.93;;;;;;;-0.30;83.39;100005.53;5072058;28;21011;-65
2022/01/17 06:23:49;;;;;;;58.13;31.57;;;;;;;-0.28;82.26;100014.09;5072677;28;20434;-66
2022/01/17 06:26:16;;;;;;;68.37;39.53;;;;;;;-0.22;82.82;100003.16;5071930;28;20454;-67
2022/01/17 06:28:42;;;;;;;52.87;31.27;;;;;;;-0.06;81.78;100009.75;5071968;28;20535;-68
2022/01/17 06:31:09;;;;;;;60.10;35.50;;;;;;;0.13;82.08;100001.31;5072198;28;20499;-68
2022/01/17 06:33:36;;;;;;;61.30;37.23;;;;;;;0.36;80.01;99997.75;5069241;28;20508;-68
2022/01/17 06:36:03;;;;;;;49.83;32.30;;;;;;;0.57;79.25;99993.44;5072007;28;20956;-68
2022/01/17 06:38:31;;;;;;;50.13;31.60;;;;;;;0.86;79.70;99986.72;5072275;28;20442;-68
2022/01/17 06:40:58;;;;;;;54.40;31.17;;;;;;;1.07;77.95;99979.81;5071812;28;21029;-70
2022/01/17 06:43:25;;;;;;;52.57;32.57;;;;;;;1.50;77.42;99988.41;5072174;28;20450;-71
2022/01/17 06:45:51;;;;;;;71.10;36.13;;;;;;;1.80;75.34;99993.69;5072107;28;20443;-71
2022/01/17 06:48:18;;;;;;;57.20;32.33;;;;;;;2.10;74.82;99998.13;5071823;28;20469;-73
2022/01/17 06:50:45;;;;;;;60.00;34.47;;;;;;;2.27;72.37;100014.09;5072231;28;20491;-78
2022/01/17 06:53:11;;;;;;;56.47;31.27;;;;;;;2.49;71.93;100010.47;5071448;28;20442;-75
2022/01/17 06:55:39;;;;;;;53.13;27.83;;;;;;;2.89;75.64;99988.47;5071036;28;21023;-76
2022/01/17 06:58:06;;;;;;;42.10;27.07;;;;;;;3.38;73.49;100004.13;5071122;28;20510;-76
2022/01/17 07:00:33;;;;;;;43.57;28.83;;;;;;;3.62;67.53;100004.53;5068305;28;20507;-78
2022/01/17 07:03:00;;;;;;;47.27;30.83;;;;;;;3.74;76.28;99989.47;5070587;28;20442;-69
2022/01/17 07:05:26;;;;;;;75.27;44.47;;;;;;;3.76;69.18;100001.47;5069797;28;20465;-72
2022/01/17 07:07:53;;;;;;;66.13;41.60;;;;;;;3.93;67.22;100019.16;5069444;28;20482;-74
2022/01/17 07:10:20;;;;;;;61.80;40.73;;;;;;;4.22;65.88;100014.66;5069812;28;20442;-72
2022/01/17 07:12:48;;;;;;;60.27;39.33;;;;;;;4.25;65.88;100019.63;5070980;28;20442;-74
2022/01/17 07:15:14;;;;;;;61.40;35.20;;;;;;;4.55;63.11;100011.50;5071663;28;20438;-73
2022/01/17 07:17:41;;;;;;;63.17;33.83;;;;;;;4.94;62.51;100014.72;5071662;28;20204;-73
2022/01/17 07:20:09;;;;;;;53.73;34.27;;;;;;;4.95;61.67;100009.31;5071754;28;20192;-72
2022/01/17 07:22:36;;;;;;;56.83;34.47;;;;;;;5.02;62.04;100010.41;5071725;28;20188;-73
2022/01/17 07:25:03;;;;;;;67.57;38.03;;;;;;;5.27;61.19;100000.97;5070763;28;20485;-72
2022/01/17 07:27:30;;;;;;;65.57;37.87;;;;;;;5.35;60.23;99991.31;5069491;28;20215;-73
2022/01/17 07:29:58;;;;;;;41.60;26.33;;;;;;;5.68;57.32;99993.25;5069487;28;20192;-72
2022/01/17 07:32:26;;;;;;;34.63;24.07;;;;;;;5.61;58.04;100012.47;5071474;28;20339;-72
2022/01/17 07:34:53;;;;;;;40.03;23.77;;;;;;;5.70;56.31;100011.53;5073624;28;20231;-72
2022/01/17 07:37:20;;;;;;;34.77;22.90;;;;;;;5.48;56.18;99993.56;5073192;28;20663;-72
2022/01/17 07:39:46;;;;;;;42.43;28.27;;;;;;;5.42;57.39;99983.63;5073438;28;20256;-71
2022/01/17 07:42:13;;;;;;;55.33;32.97;;;;;;;5.36;57.83;99982.44;5075464;28;20192;-73
2022/01/17 07:44:42;;;;;;;48.13;31.37;;;;;;;5.22;60.14;99964.53;5075257;28;20655;-71
2022/01/17 07:47:17;;;;;;;49.57;30.17;;;;;;;5.28;59.68;99961.28;5075106;28;20663;-73
2022/01/17 07:49:45;;;;;;;44.47;28.47;;;;;;;4.93;61.31;99942.03;5075052;28;20592;-72
2022/01/17 07:52:12;;;;;;;40.43;27.03;;;;;;;4.84;62.70;99938.50;5074967;28;20291;-77
2022/01/17 07:54:43;;;;;;;43.77;26.67;;;;;;;5.32;61.63;99957.38;5074938;28;20193;-68
2022/01/17 07:57:10;;;;;;;48.00;28.67;;;;;;;5.57;59.83;99961.84;5075067;28;20224;-83
2022/01/17 07:59:37;;;;;;;47.07;29.83;;;;;;;5.66;61.51;99976.78;5075077;28;20200;-74
2022/01/17 08:02:05;;;;;;;50.20;32.43;;;;;;;5.95;61.08;99994.16;5071460;28;20624;-75
2022/01/17 08:04:33;;;;;;;55.60;28.10;;;;;;;6.17;59.15;99988.34;5074598;28;20246;-70
2022/01/17 08:06:59;;;;;;;58.63;34.60;;;;;;;6.49;58.42;99988.53;5074924;28;20193;-71
2022/01/17 08:09:30;;;;;;;34.07;22.63;;;;;;;6.79;55.20;100017.03;5074782;28;20224;-74
2022/01/17 08:11:57;;;;;;;30.07;22.03;;;;;;;6.98;54.13;100014.13;5075201;28;20275;-74
2022/01/17 08:14:24;;;;;;;36.50;20.97;;;;;;;7.30;54.45;100012.38;5074688;28;20731;-73
2022/01/17 08:16:51;;;;;;;32.00;20.20;;;;;;;7.59;51.83;100017.22;5074817;28;20657;-72
2022/01/17 08:19:18;;;;;;;26.63;16.93;;;;;;;8.01;51.32;100028.44;5074899;28;20250;-72
2022/01/17 08:21:47;;;;;;;32.40;16.20;;;;;;;8.36;49.66;100065.13;5074619;28;20222;-70
2022/01/17 08:24:14;;;;;;;18.97;12.27;;;;;;;8.36;48.79;100095.09;5074166;28;20655;-70
2022/01/17 08:26:42;;;;;;;14.03;10.93;;;;;;;8.55;47.61;100088.63;5074600;28;20655;-69
2022/01/17 08:29:09;;;;;;;14.17;9.70;;;;;;;8.59;46.98;100108.47;5075016;28;20300;-73
2022/01/17 08:31:36;;;;;;;17.05;8.88;;;;;;;8.66;45.34;100120.03;5073855;28;20567;-73
2022/01/17 08:34:03;;;;;;;9.23;7.20;;;;;;;9.02;44.13;100073.56;5074514;28;20285;-71
2022/01/17 08:36:29;;;;;;;10.37;7.03;;;;;;;9.22;43.67;100040.34;5074296;28;20192;-72
2022/01/17 08:38:58;;;;;;;9.27;6.77;;;;;;;9.48;42.15;100046.16;5074560;28;20192;-72
2022/01/17 08:41:24;;;;;;;44.20;8.43;;;;;;;9.64;41.12;100016.88;5074442;28;20246;-71
2022/01/17 08:43:51;;;;;;;8.20;6.57;;;;;;;9.82;40.39;100033.31;5073048;28;20222;-72
2022/01/17 08:46:19;;;;;;;35.77;6.50;;;;;;;10.11;39.51;100021.00;5074521;28;20196;-70
2022/01/17 08:48:46;;;;;;;12.30;5.50;;;;;;;10.44;39.56;99982.47;5074326;28;20296;-70
2022/01/17 08:51:13;;;;;;;9.03;7.93;;;;;;;10.61;38.44;99972.47;5074503;28;20191;-73
2022/01/17 08:53:39;;;;;;;11.87;7.93;;;;;;;10.80;38.49;99974.56;5074495;28;20192;-71
2022/01/17 08:56:07;;;;;;;12.87;7.57;;;;;;;10.84;37.74;99975.84;5074565;28;20192;-71
2022/01/17 08:58:34;;;;;;;18.93;10.53;;;;;;;10.96;37.35;99940.63;5074200;28;20269;-70
2022/01/17 09:01:01;;;;;;;13.50;8.70;;;;;;;10.91;36.80;99928.91;5074204;28;20188;-72
2022/01/17 09:03:27;;;;;;;15.37;8.43;;;;;;;11.00;37.25;99933.09;5073663;28;20219;-70
2022/01/17 09:05:54;;;;;;;12.93;8.00;;;;;;;10.92;37.10;99914.63;5073970;28;20253;-71
2022/01/17 09:08:22;;;;;;;29.87;9.70;;;;;;;11.10;36.46;99933.63;5074487;28;20668;-71
2022/01/17 09:10:50;;;;;;;8.50;7.67;;;;;;;11.13;36.17;99919.94;5073763;28;20192;-71
2022/01/17 09:13:19;;;;;;;7.67;6.10;;;;;;;11.05;35.95;99888.16;5073901;28;20197;-71
2022/01/17 09:15:46;;;;;;;38.40;7.37;;;;;;;10.96;35.85;99884.81;5073644;28;20678;-71
2022/01/17 09:18:14;;;;;;;37.60;6.73;;;;;;;10.62;36.08;99897.91;5073880;28;20193;-73
2022/01/17 09:20:41;;;;;;;7.13;5.57;;;;;;;10.62;36.08;99891.78;5073640;28;20249;-70
2022/01/17 09:23:08;;;;;;;55.97;8.00;;;;;;;10.79;36.46;99909.16;5074207;28;20192;-74
2022/01/17 09:25:35;;;;;;;22.20;13.07;;;;;;;11.04;38.67;99929.88;5073371;28;20270;-71
2022/01/17 09:28:01;;;;;;;11.30;5.90;;;;;;;11.11;35.77;99935.25;5073426;28;20279;-73
2022/01/17 09:30:30;;;;;;;8.37;6.80;;;;;;;11.07;36.54;99947.31;5073620;28;20207;-74
2022/01/17 09:32:57;;;;;;;6.50;5.73;;;;;;;11.01;35.44;99913.47;5073240;28;20221;-75
2022/01/17 09:35:24;;;;;;;6.13;5.63;;;;;;;10.84;35.95;99912.06;5073733;28;20245;-76
2022/01/17 09:37:51;;;;;;;10.47;6.50;;;;;;;10.82;36.06;99930.03;5072989;28;20189;-77
2022/01/17 09:40:19;;;;;;;7.63;6.40;;;;;;;11.05;36.25;99909.44;5073102;28;20192;-73
2022/01/17 09:42:47;;;;;;;11.27;6.03;;;;;;;11.10;36.04;99906.22;5073314;28;20196;-74
2022/01/17 09:45:15;;;;;;;16.90;9.30;;;;;;;11.19;36.04;99889.94;5073387;28;20622;-80
2022/01/17 09:47:44;;;;;;;11.87;9.40;;;;;;;11.23;36.66;99895.72;5073142;28;20246;-76
2022/01/17 09:50:13;;;;;;;8.90;7.83;;;;;;;11.23;36.66;99893.06;5073151;28;20215;-81
2022/01/17 09:52:46;;;;;;;17.80;7.30;;;;;;;11.52;36.65;99882.25;5073087;28;20684;-80
2022/01/17 09:55:16;;;;;;;8.07;5.63;;;;;;;11.49;36.73;99874.66;5072638;28;20185;-79
2022/01/17 09:57:50;;;;;;;6.00;5.40;;;;;;;11.48;37.07;99857.06;5073258;28;20195;-79
2022/01/17 10:00:20;;;;;;;9.10;5.07;;;;;;;11.57;36.94;99866.53;5072821;28;20565;-82
2022/01/17 10:02:49;;;;;;;33.07;6.87;;;;;;;11.41;37.61;99849.03;5072689;28;20193;-81
2022/01/17 10:05:16;;;;;;;7.17;4.80;;;;;;;11.66;37.95;99855.59;5072689;28;20735;-81
2022/01/17 10:07:55;;;;;;;7.53;5.23;;;;;;;11.68;37.49;99853.53;5072561;28;20198;-82
2022/01/17 10:10:36;;;;;;;24.73;6.20;;;;;;;11.61;36.47;99860.69;5073342;28;20194;-77
2022/01/17 10:13:07;;;;;;;5.20;4.80;;;;;;;11.47;36.24;99826.97;5053294;28;20256;-78
2022/01/17 10:15:45;;;;;;;10.33;5.20;;;;;;;11.28;36.43;99830.31;5053191;28;20196;-76
2022/01/17 10:18:36;;;;;;;7.17;5.10;;;;;;;11.39;36.20;99816.47;5052724;28;20646;-76
2022/01/17 10:21:08;;;;;;;13.00;7.03;;;;;;;11.43;36.13;99816.94;5052425;28;20181;-77
2022/01/17 10:26:53;;;;;;;11.23;5.57;;;;;;;11.31;35.93;99792.66;5052127;28;20244;-74
2022/01/17 10:34:56;;;;;;;7.43;5.70;;;;;;;11.63;35.95;99778.00;5073231;28;20231;-76
2022/01/17 10:37:25;;;;;;;309.37;24.63;;;;;;;11.59;36.02;99769.53;5072506;28;20567;-76
2022/01/17 10:39:58;;;;;;;18.93;6.27;;;;;;;11.67;35.71;99777.41;5071891;28;20206;-77
2022/01/17 10:42:30;;;;;;;17.30;6.37;;;;;;;11.61;35.72;99766.72;5071543;28;20685;-75
2022/01/17 10:45:04;;;;;;;6.40;5.60;;;;;;;11.82;35.73;99774.63;5069783;28;20661;-75
2022/01/17 10:47:32;;;;;;;10.83;7.07;;;;;;;11.51;35.30;99771.56;5070021;28;20187;-74
2022/01/17 10:50:04;;;;;;;12.87;5.60;;;;;;;11.55;35.36;99772.81;5070125;28;20232;-74
2022/01/17 10:52:35;;;;;;;7.77;4.77;;;;;;;11.61;35.43;99788.84;5070571;28;20281;-74
2022/01/17 10:55:09;;;;;;;8.60;4.27;;;;;;;11.45;34.68;99778.47;5070778;28;20193;-73
2022/01/17 10:57:40;;;;;;;5.00;4.50;;;;;;;11.52;34.09;99784.66;5071552;28;20194;-76
2022/01/17 11:00:11;;;;;;;6.10;5.50;;;;;;;11.61;34.93;99788.84;5072322;28;20190;-77
2022/01/17 11:02:39;;;;;;;9.50;5.37;;;;;;;11.63;34.88;99789.44;5072133;28;20187;-76
2022/01/17 11:05:10;;;;;;;5.80;4.87;;;;;;;11.90;34.86;99809.06;5071983;28;20193;-76
2022/01/17 11:07:41;;;;;;;7.67;5.43;;;;;;;12.06;34.67;99798.09;5071562;28;20582;-77
2022/01/17 11:10:17;;;;;;;27.53;5.00;;;;;;;12.15;35.95;99803.06;5071882;28;20279;-76
2022/01/17 11:12:44;;;;;;;5.20;4.07;;;;;;;12.31;37.22;99801.88;5072215;28;20274;-76
2022/01/17 11:15:12;;;;;;;8.60;4.80;;;;;;;12.48;37.90;99790.66;5072358;28;20550;-75
2022/01/17 11:17:46;;;;;;;4.70;4.03;;;;;;;12.57;38.03;99781.47;5071958;28;20248;-76
2022/01/17 11:20:15;;;;;;;12.03;5.53;;;;;;;12.58;36.60;99785.75;5072456;28;20272;-76
2022/01/17 11:22:45;;;;;;;25.50;4.93;;;;;;;12.01;34.26;99785.34;5071883;28;20201;-77
2022/01/17 11:25:14;;;;;;;19.50;5.17;;;;;;;11.95;33.28;99788.00;5071381;28;20194;-77
2022/01/17 11:27:41;;;;;;;8.20;4.63;;;;;;;12.08;32.68;99796.88;5071470;28;20624;-77
2022/01/17 11:30:10;;;;;;;7.53;4.53;;;;;;;12.33;33.05;99794.53;5071729;28;20226;-78
2022/01/17 11:32:36;;;;;;;4.90;4.50;;;;;;;12.47;32.68;99790.88;5071603;28;20233;-77
2022/01/17 11:35:05;;;;;;;8.53;4.13;;;;;;;12.49;32.19;99792.31;5072891;28;20186;-77
2022/01/17 11:37:37;;;;;;;7.07;4.67;;;;;;;12.27;32.32;99772.16;5071371;28;20741;-76
2022/01/17 11:40:06;;;;;;;11.00;3.87;;;;;;;11.98;33.48;99777.78;5071823;28;20201;-77